| time (UTC) | temp F | wind direction | speed MPH | gust MPH | rain 1hr in | rain 24hr in | rain mn in | humidity % | barometer mb |
| 20260510153010 | 55 | 220 | 8.0 | 14.0 | 0.00 | 0.07 | 0.00 | 57 | 1015.8 |
| 20260510151507 | 55 | 276 | 7.0 | 15.0 | 0.00 | 0.07 | 0.00 | 58 | 1015.7 |
| 20260510150001 | 54 | 285 | 4.0 | 15.0 | 0.00 | 0.07 | 0.00 | 58 | 1015.5 |
| 20260510144610 | 52 | 290 | 4.0 | 13.0 | 0.00 | 0.07 | 0.00 | 56 | 1015.4 |
| 20260510143107 | 54 | 306 | 6.0 | 12.0 | 0.00 | 0.07 | 0.00 | 57 | 1015.2 |
| 20260510141548 | 53 | 278 | 7.0 | 12.0 | 0.00 | 0.07 | 0.00 | 59 | 1015.0 |
| 20260510140042 | 52 | 360 | 7.0 | 12.0 | 0.00 | 0.07 | 0.00 | 57 | 1014.8 |
| 20260510134552 | 52 | 242 | 7.0 | 12.0 | 0.00 | 0.07 | 0.00 | 58 | 1014.6 |
| 20260510133034 | 52 | 325 | 3.0 | 9.0 | 0.00 | 0.07 | 0.00 | 58 | 1014.4 |
| 20260510131529 | 51 | 270 | 5.0 | 10.0 | 0.00 | 0.07 | 0.00 | 59 | 1014.6 |
| 20260510130025 | 51 | 276 | 4.0 | 7.0 | 0.00 | 0.07 | 0.00 | 54 | 1014.5 |
| 20260510124520 | 51 | 264 | 4.0 | 11.0 | 0.00 | 0.07 | 0.00 | 50 | 1014.5 |
| 20260510123016 | 51 | 314 | 6.0 | 14.0 | 0.00 | 0.07 | 0.00 | 55 | 1014.5 |
| 20260510121511 | 50 | 285 | 4.0 | 9.0 | 0.00 | 0.07 | 0.00 | 53 | 1014.4 |
| 20260510120007 | 49 | 303 | 3.0 | 8.0 | 0.00 | 0.07 | 0.00 | 50 | 1014.3 |
| 20260510114504 | 49 | 316 | 3.0 | 5.0 | 0.00 | 0.07 | 0.00 | 44 | 1014.1 |
| 20260510113058 | 48 | 321 | 2.0 | 6.0 | 0.00 | 0.07 | 0.00 | 34 | 1013.7 |
| 20260510111604 | 49 | 260 | 2.0 | 4.0 | 0.00 | 0.07 | 0.00 | 29 | 1013.4 |
| 20260510110049 | 48 | 311 | 1.0 | 4.0 | 0.00 | 0.07 | 0.00 | 27 | 1012.8 |
| 20260510104604 | 48 | 286 | 2.0 | 6.0 | 0.00 | 0.07 | 0.00 | 15 | 1012.6 |
| 20260510103043 | 49 | 307 | 3.0 | 5.0 | 0.00 | 0.07 | 0.00 | 2 | 1012.3 |
| 20260510101536 | 49 | 306 | 3.0 | 5.0 | 0.00 | 0.07 | 0.00 | 1 | 1012.2 |
| 20260510100031 | 49 | 327 | 3.0 | 10.0 | 0.00 | 0.07 | 0.00 | 1 | 1011.9 |
| 20260510094531 | 50 | 323 | 3.0 | 11.0 | 0.00 | 0.07 | 0.00 | 1 | 1011.8 |
| 20260510093023 | 51 | 317 | 2.0 | 10.0 | 0.00 | 0.07 | 0.00 | 1 | 1011.2 |
| 20260510091522 | 51 | 329 | 4.0 | 10.0 | 0.00 | 0.07 | 0.00 | 1 | 1011.2 |
| 20260510090015 | 52 | 329 | 2.0 | 8.0 | 0.00 | 0.07 | 0.00 | 1 | 1010.7 |
| 20260510084511 | 52 | 336 | 4.0 | 10.0 | 0.00 | 0.07 | 0.00 | 1 | 1010.6 |
| 20260510083006 | 52 | 333 | 3.0 | 5.0 | 0.00 | 0.07 | 0.00 | 1 | 1010.5 |
| 20260510081501 | 52 | 315 | 2.0 | 6.0 | 0.00 | 0.07 | 0.00 | 1 | 1010.3 |
| 20260510080057 | 52 | 292 | 1.0 | 4.0 | 0.00 | 0.07 | 0.00 | 1 | 1010.1 |
| 20260510074554 | 51 | 191 | 1.0 | 3.0 | 0.00 | 0.07 | 0.00 | 1 | 1010.2 |
| 20260510073048 | 51 | 302 | 0.0 | 3.0 | 0.00 | 0.07 | 0.00 | 1 | 1009.8 |
| 20260510071543 | 51 | 261 | 2.0 | 7.0 | 0.00 | 0.07 | 0.00 | 1 | 1009.7 |
| 20260510070038 | 50 | 260 | 1.0 | 4.0 | 0.00 | 0.07 | 0.00 | 1 | 1009.4 |
| 20260510064534 | 51 | 207 | 2.0 | 5.0 | 0.00 | 0.07 | 0.00 | 1 | 1009.1 |
| 20260510063030 | 50 | 257 | 0.0 | 4.0 | 0.00 | 0.07 | 0.00 | 1 | 1009.4 |
| 20260510061530 | 50 | 208 | 1.0 | 6.0 | 0.00 | 0.07 | 0.00 | 1 | 1009.1 |
| 20260510060040 | 50 | 269 | 1.0 | 4.0 | 0.00 | 0.07 | 0.00 | 1 | 1008.9 |
| 20260510054516 | 51 | 245 | 1.0 | 4.0 | 0.00 | 0.07 | 0.00 | 1 | 1009.1 |
| 20260510053011 | 52 | 255 | 2.0 | 6.0 | 0.00 | 0.07 | 0.00 | 1 | 1008.9 |
| 20260510051507 | 51 | 205 | 2.0 | 8.0 | 0.00 | 0.07 | 0.00 | 1 | 1009.0 |
| 20260510050002 | 52 | 220 | 2.0 | 6.0 | 0.00 | 0.07 | 0.00 | 1 | 1009.2 |
| 20260510044559 | 52 | 246 | 2.0 | 7.0 | 0.00 | 0.07 | 0.00 | 1 | 1009.0 |
| 20260510043142 | 52 | 252 | 2.0 | 7.0 | 0.00 | 0.07 | 0.00 | 1 | 1009.0 |
| 20260510041553 | 53 | 223 | 2.0 | 7.0 | 0.00 | 0.07 | 0.00 | 1 | 1008.9 |
| 20260510040045 | 53 | 207 | 3.0 | 9.0 | 0.00 | 0.07 | 0.00 | 1 | 1008.8 |
| 20260510034545 | 53 | 247 | 3.0 | 9.0 | 0.00 | 0.07 | 0.07 | 1 | 1008.4 |
| 20260510033048 | 53 | 222 | 4.0 | 11.0 | 0.00 | 0.07 | 0.07 | 1 | 1008.2 |
| 20260510031610 | 53 | 161 | 4.0 | 9.0 | 0.00 | 0.07 | 0.07 | 1 | 1008.3 |
| 20260510030041 | 53 | 224 | 3.0 | 8.0 | 0.01 | 0.07 | 0.07 | 1 | 1008.1 |
| 20260510024538 | 53 | 239 | 3.0 | 5.0 | 0.02 | 0.07 | 0.07 | 1 | 1008.0 |
| 20260510023043 | 53 | 213 | 2.0 | 6.0 | 0.02 | 0.07 | 0.07 | 1 | 1007.8 |
| 20260510021527 | 53 | 192 | 4.0 | 11.0 | 0.02 | 0.07 | 0.07 | 1 | 1008.2 |
| 20260510020025 | 53 | 261 | 5.0 | 10.0 | 0.04 | 0.06 | 0.06 | 1 | 1008.8 |
| 20260510014521 | 54 | 272 | 7.0 | 13.0 | 0.05 | 0.05 | 0.05 | 1 | 1008.7 |
| 20260510013016 | 54 | 287 | 10.0 | 15.0 | 0.05 | 0.05 | 0.05 | 1 | 1008.6 |
| 20260510011516 | 55 | 259 | 11.0 | 23.0 | 0.05 | 0.05 | 0.05 | 1 | 1008.3 |
| 20260510010012 | 58 | 275 | 12.0 | 33.0 | 0.02 | 0.02 | 0.02 | 28 | 1008.1 |
| 20260510004501 | 60 | 219 | 0.0 | 2.0 | 0.00 | 0.00 | 0.00 | 46 | 1006.1 |
| 20260510003106 | 60 | 231 | 1.0 | 4.0 | 0.00 | 0.00 | 0.00 | 51 | 1005.9 |
| 20260510001553 | 61 | 246 | 3.0 | 4.0 | 0.00 | 0.00 | 0.00 | 54 | 1005.7 |
| 20260510000050 | 62 | 198 | 1.0 | 5.0 | 0.00 | 0.00 | 0.00 | 56 | 1005.6 |
| 20260509234544 | 62 | 203 | 3.0 | 6.0 | 0.00 | 0.00 | 0.00 | 56 | 1005.3 |
| 20260509233039 | 62 | 198 | 2.0 | 9.0 | 0.00 | 0.00 | 0.00 | 56 | 1005.4 |
| 20260509231535 | 63 | 210 | 2.0 | 9.0 | 0.00 | 0.00 | 0.00 | 56 | 1005.4 |
| 20260509230030 | 63 | 230 | 2.0 | 9.0 | 0.00 | 0.00 | 0.00 | 57 | 1005.4 |
| 20260509224526 | 64 | 236 | 5.0 | 11.0 | 0.00 | 0.00 | 0.00 | 57 | 1005.5 |
| 20260509223026 | 64 | 222 | 4.0 | 10.0 | 0.00 | 0.00 | 0.00 | 57 | 1005.4 |
| 20260509221517 | 64 | 208 | 3.0 | 11.0 | 0.00 | 0.00 | 0.00 | 57 | 1005.3 |
| 20260509220012 | 64 | 235 | 5.0 | 12.0 | 0.00 | 0.00 | 0.00 | 57 | 1005.3 |
| 20260509214507 | 64 | 236 | 4.0 | 12.0 | 0.00 | 0.00 | 0.00 | 57 | 1005.5 |
| 20260509213003 | 63 | 190 | 6.0 | 13.0 | 0.00 | 0.00 | 0.00 | 56 | 1005.6 |
| 20260509211614 | 64 | 205 | 6.0 | 14.0 | 0.00 | 0.00 | 0.00 | 55 | 1005.5 |
| 20260509210059 | 64 | 242 | 6.0 | 13.0 | 0.00 | 0.00 | 0.00 | 57 | 1005.7 |
| 20260509204600 | 64 | 229 | 8.0 | 16.0 | 0.00 | 0.00 | 0.00 | 56 | 1005.7 |
| 20260509203055 | 64 | 215 | 7.0 | 14.0 | 0.00 | 0.00 | 0.00 | 56 | 1005.8 |
| 20260509201541 | 64 | 225 | 4.0 | 14.0 | 0.00 | 0.00 | 0.00 | 53 | 1006.1 |
| 20260509200038 | 64 | 294 | 5.0 | 14.0 | 0.00 | 0.00 | 0.00 | 55 | 1006.1 |
| 20260509194533 | 64 | 281 | 5.0 | 12.0 | 0.00 | 0.00 | 0.00 | 57 | 1006.2 |
| 20260509193028 | 63 | 251 | 6.0 | 10.0 | 0.00 | 0.00 | 0.00 | 55 | 1006.4 |
| 20260509191524 | 62 | 259 | 6.0 | 11.0 | 0.00 | 0.00 | 0.00 | 47 | 1006.7 |
| 20260509190022 | 63 | 188 | 5.0 | 11.0 | 0.00 | 0.00 | 0.00 | 52 | 1006.9 |
| 20260509184514 | 63 | 195 | 4.0 | 10.0 | 0.00 | 0.00 | 0.00 | 51 | 1007.1 |
| 20260509183014 | 62 | 225 | 6.0 | 10.0 | 0.00 | 0.00 | 0.00 | 46 | 1007.5 |
| 20260509181504 | 61 | 209 | 7.0 | 12.0 | 0.00 | 0.00 | 0.00 | 48 | 1007.5 |
| 20260509180100 | 62 | 165 | 3.0 | 9.0 | 0.00 | 0.00 | 0.00 | 46 | 1007.7 |
| 20260509174556 | 61 | 238 | 4.0 | 9.0 | 0.00 | 0.00 | 0.00 | 35 | 1007.7 |
| 20260509173101 | 60 | 172 | 4.0 | 10.0 | 0.00 | 0.00 | 0.00 | 34 | 1007.8 |
| 20260509171548 | 59 | 234 | 4.0 | 9.0 | 0.00 | 0.00 | 0.00 | 15 | 1008.0 |
| 20260509170042 | 59 | 190 | 5.0 | 11.0 | 0.00 | 0.00 | 0.00 | 28 | 1008.0 |
| 20260509164537 | 59 | 240 | 6.0 | 9.0 | 0.00 | 0.00 | 0.00 | 35 | 1008.3 |
| 20260509163048 | 58 | 226 | 5.0 | 10.0 | 0.00 | 0.00 | 0.00 | 26 | 1008.5 |
| 20260509161528 | 59 | 190 | 4.0 | 9.0 | 0.00 | 0.00 | 0.00 | 17 | 1008.5 |
| 20260509160026 | 58 | 202 | 4.0 | 9.0 | 0.00 | 0.00 | 0.00 | 23 | 1008.7 |
| 20260509154520 | 58 | 226 | 3.0 | 11.0 | 0.00 | 0.00 | 0.00 | 9 | 1008.8 |